sensor_id;sensor_type;location;lat;lon;timestamp;temperature;humidity
13856;DHT22;6998;53.608;9.958;2023-04-01T00:01:07;10.60;99.90
13856;DHT22;6998;53.608;9.958;2023-04-01T00:03:34;10.60;99.90
13856;DHT22;6998;53.608;9.958;2023-04-01T00:06:01;10.60;99.90
13856;DHT22;6998;53.608;9.958;2023-04-01T00:08:29;10.70;99.90
13856;DHT22;6998;53.608;9.958;2023-04-01T00:10:56;10.60;99.90
13856;DHT22;6998;53.608;9.958;2023-04-01T00:13:23;10.60;99.90
13856;DHT22;6998;53.608;9.958;2023-04-01T00:15:51;10.60;99.90
13856;DHT22;6998;53.608;9.958;2023-04-01T00:18:18;10.70;99.90
13856;DHT22;6998;53.608;9.958;2023-04-01T00:20:46;10.70;99.90
13856;DHT22;6998;53.608;9.958;2023-04-01T00:23:13;10.70;99.90
13856;DHT22;6998;53.608;9.958;2023-04-01T00:25:41;10.60;99.90
13856;DHT22;6998;53.608;9.958;2023-04-01T00:28:08;10.70;99.90
13856;DHT22;6998;53.608;9.958;2023-04-01T00:30:35;10.70;99.90
13856;DHT22;6998;53.608;9.958;2023-04-01T00:33:02;10.70;99.90
13856;DHT22;6998;53.608;9.958;2023-04-01T00:35:29;10.70;99.90
13856;DHT22;6998;53.608;9.958;2023-04-01T00:37:56;10.70;99.90
13856;DHT22;6998;53.608;9.958;2023-04-01T00:40:26;10.60;99.90
13856;DHT22;6998;53.608;9.958;2023-04-01T00:42:55;10.60;99.90
13856;DHT22;6998;53.608;9.958;2023-04-01T00:45:29;10.60;99.90
13856;DHT22;6998;53.608;9.958;2023-04-01T00:47:59;10.60;99.90
13856;DHT22;6998;53.608;9.958;2023-04-01T00:50:29;10.60;99.90
13856;DHT22;6998;53.608;9.958;2023-04-01T00:52:57;10.70;99.90
13856;DHT22;6998;53.608;9.958;2023-04-01T00:55:26;10.70;99.90
13856;DHT22;6998;53.608;9.958;2023-04-01T00:57:57;10.60;99.90
13856;DHT22;6998;53.608;9.958;2023-04-01T01:00:25;10.70;99.90
13856;DHT22;6998;53.608;9.958;2023-04-01T01:02:52;10.60;99.90
13856;DHT22;6998;53.608;9.958;2023-04-01T01:05:23;10.50;99.90
13856;DHT22;6998;53.608;9.958;2023-04-01T01:08:01;10.60;99.90
13856;DHT22;6998;53.608;9.958;2023-04-01T01:10:31;10.50;99.90
13856;DHT22;6998;53.608;9.958;2023-04-01T01:13:04;10.50;99.90
13856;DHT22;6998;53.608;9.958;2023-04-01T01:15:39;10.40;99.90
13856;DHT22;6998;53.608;9.958;2023-04-01T01:18:10;10.50;99.90
13856;DHT22;6998;53.608;9.958;2023-04-01T01:20:53;10.50;99.90
13856;DHT22;6998;53.608;9.958;2023-04-01T01:26:48;10.50;99.90
13856;DHT22;6998;53.608;9.958;2023-04-01T01:29:45;10.60;99.90
13856;DHT22;6998;53.608;9.958;2023-04-01T01:32:24;10.60;99.90
13856;DHT22;6998;53.608;9.958;2023-04-01T01:35:06;10.50;99.90
13856;DHT22;6998;53.608;9.958;2023-04-01T01:37:34;10.50;99.90
13856;DHT22;6998;53.608;9.958;2023-04-01T01:40:04;10.50;99.90
13856;DHT22;6998;53.608;9.958;2023-04-01T01:42:35;10.50;99.90
13856;DHT22;6998;53.608;9.958;2023-04-01T01:45:04;10.50;99.90
13856;DHT22;6998;53.608;9.958;2023-04-01T01:47:32;10.50;99.90
13856;DHT22;6998;53.608;9.958;2023-04-01T01:50:00;10.50;99.90
13856;DHT22;6998;53.608;9.958;2023-04-01T01:52:30;10.50;99.90
13856;DHT22;6998;53.608;9.958;2023-04-01T01:54:57;10.50;99.90
13856;DHT22;6998;53.608;9.958;2023-04-01T01:57:26;10.40;99.90
13856;DHT22;6998;53.608;9.958;2023-04-01T01:59:56;10.50;99.90
13856;DHT22;6998;53.608;9.958;2023-04-01T02:02:25;10.40;99.90
13856;DHT22;6998;53.608;9.958;2023-04-01T02:04:56;10.50;99.90
13856;DHT22;6998;53.608;9.958;2023-04-01T02:07:27;10.50;99.90
13856;DHT22;6998;53.608;9.958;2023-04-01T02:09:56;10.50;99.90
13856;DHT22;6998;53.608;9.958;2023-04-01T02:12:23;10.50;99.90
13856;DHT22;6998;53.608;9.958;2023-04-01T02:14:53;10.50;99.90
13856;DHT22;6998;53.608;9.958;2023-04-01T02:17:24;10.50;99.90
13856;DHT22;6998;53.608;9.958;2023-04-01T02:19:53;10.50;99.90
13856;DHT22;6998;53.608;9.958;2023-04-01T02:22:23;10.50;99.90
13856;DHT22;6998;53.608;9.958;2023-04-01T02:24:53;10.40;99.90
13856;DHT22;6998;53.608;9.958;2023-04-01T02:27:22;10.50;99.90
13856;DHT22;6998;53.608;9.958;2023-04-01T02:29:50;10.50;99.90
13856;DHT22;6998;53.608;9.958;2023-04-01T02:32:18;10.50;99.90
13856;DHT22;6998;53.608;9.958;2023-04-01T02:34:46;10.50;99.90
13856;DHT22;6998;53.608;9.958;2023-04-01T02:37:14;10.50;99.90
13856;DHT22;6998;53.608;9.958;2023-04-01T02:40:12;10.50;99.90
13856;DHT22;6998;53.608;9.958;2023-04-01T02:42:40;10.50;99.90
13856;DHT22;6998;53.608;9.958;2023-04-01T02:45:09;10.50;99.90
13856;DHT22;6998;53.608;9.958;2023-04-01T02:47:36;10.50;99.90
13856;DHT22;6998;53.608;9.958;2023-04-01T02:50:03;10.50;99.90
13856;DHT22;6998;53.608;9.958;2023-04-01T02:52:30;10.50;99.90
13856;DHT22;6998;53.608;9.958;2023-04-01T02:54:57;10.50;99.90
13856;DHT22;6998;53.608;9.958;2023-04-01T02:57:24;10.40;99.90
13856;DHT22;6998;53.608;9.958;2023-04-01T02:59:53;10.40;99.90
13856;DHT22;6998;53.608;9.958;2023-04-01T03:02:19;10.40;99.90
13856;DHT22;6998;53.608;9.958;2023-04-01T03:04:46;10.40;99.90
13856;DHT22;6998;53.608;9.958;2023-04-01T03:07:13;10.30;99.90
13856;DHT22;6998;53.608;9.958;2023-04-01T03:09:40;10.40;99.90
13856;DHT22;6998;53.608;9.958;2023-04-01T03:12:07;10.40;99.90
13856;DHT22;6998;53.608;9.958;2023-04-01T03:14:33;10.40;99.90
13856;DHT22;6998;53.608;9.958;2023-04-01T03:17:02;10.40;99.90
13856;DHT22;6998;53.608;9.958;2023-04-01T03:19:28;10.40;99.90
13856;DHT22;6998;53.608;9.958;2023-04-01T03:21:55;10.40;99.90
13856;DHT22;6998;53.608;9.958;2023-04-01T03:24:22;10.40;99.90
13856;DHT22;6998;53.608;9.958;2023-04-01T03:26:49;10.40;99.90
13856;DHT22;6998;53.608;9.958;2023-04-01T03:29:15;10.40;99.90
13856;DHT22;6998;53.608;9.958;2023-04-01T03:31:44;10.40;99.90
13856;DHT22;6998;53.608;9.958;2023-04-01T03:34:12;10.40;99.90
13856;DHT22;6998;53.608;9.958;2023-04-01T03:36:39;10.40;99.90
13856;DHT22;6998;53.608;9.958;2023-04-01T03:39:06;10.40;99.90
13856;DHT22;6998;53.608;9.958;2023-04-01T03:41:34;10.40;99.90
13856;DHT22;6998;53.608;9.958;2023-04-01T03:44:01;10.40;99.90
13856;DHT22;6998;53.608;9.958;2023-04-01T03:46:28;10.50;99.90
13856;DHT22;6998;53.608;9.958;2023-04-01T03:48:55;10.40;99.90
13856;DHT22;6998;53.608;9.958;2023-04-01T03:51:23;10.50;99.90
13856;DHT22;6998;53.608;9.958;2023-04-01T03:53:50;10.40;99.90
13856;DHT22;6998;53.608;9.958;2023-04-01T03:56:17;10.40;99.90
13856;DHT22;6998;53.608;9.958;2023-04-01T03:58:43;10.40;99.90
13856;DHT22;6998;53.608;9.958;2023-04-01T04:01:18;10.40;99.90
13856;DHT22;6998;53.608;9.958;2023-04-01T04:03:46;10.40;99.90
13856;DHT22;6998;53.608;9.958;2023-04-01T04:06:14;10.30;99.90
13856;DHT22;6998;53.608;9.958;2023-04-01T04:08:43;10.30;99.90
13856;DHT22;6998;53.608;9.958;2023-04-01T04:11:10;10.30;99.90
13856;DHT22;6998;53.608;9.958;2023-04-01T04:13:37;10.30;99.90
13856;DHT22;6998;53.608;9.958;2023-04-01T04:16:04;10.30;99.90
13856;DHT22;6998;53.608;9.958;2023-04-01T04:18:32;10.30;99.90
13856;DHT22;6998;53.608;9.958;2023-04-01T04:20:58;10.30;99.90
13856;DHT22;6998;53.608;9.958;2023-04-01T04:23:25;10.30;99.90
13856;DHT22;6998;53.608;9.958;2023-04-01T04:25:58;10.30;99.90
13856;DHT22;6998;53.608;9.958;2023-04-01T04:28:25;10.30;99.90
13856;DHT22;6998;53.608;9.958;2023-04-01T04:30:52;10.30;99.90
13856;DHT22;6998;53.608;9.958;2023-04-01T04:33:20;10.30;99.90
13856;DHT22;6998;53.608;9.958;2023-04-01T04:35:47;10.30;99.90
13856;DHT22;6998;53.608;9.958;2023-04-01T04:38:14;10.20;99.90
13856;DHT22;6998;53.608;9.958;2023-04-01T04:40:42;10.20;99.90
13856;DHT22;6998;53.608;9.958;2023-04-01T04:43:14;10.20;99.90
13856;DHT22;6998;53.608;9.958;2023-04-01T04:45:41;10.20;99.90
13856;DHT22;6998;53.608;9.958;2023-04-01T04:48:08;10.20;99.90
13856;DHT22;6998;53.608;9.958;2023-04-01T04:50:35;10.20;99.90
13856;DHT22;6998;53.608;9.958;2023-04-01T04:53:02;10.20;99.90
13856;DHT22;6998;53.608;9.958;2023-04-01T04:55:29;10.10;99.90
13856;DHT22;6998;53.608;9.958;2023-04-01T04:57:56;10.10;99.90
13856;DHT22;6998;53.608;9.958;2023-04-01T05:00:24;10.10;99.90
13856;DHT22;6998;53.608;9.958;2023-04-01T05:02:51;10.10;99.90
13856;DHT22;6998;53.608;9.958;2023-04-01T05:05:17;10.20;99.90
13856;DHT22;6998;53.608;9.958;2023-04-01T05:07:44;10.20;99.90
13856;DHT22;6998;53.608;9.958;2023-04-01T05:10:11;10.20;99.90
13856;DHT22;6998;53.608;9.958;2023-04-01T05:12:38;10.20;99.90
13856;DHT22;6998;53.608;9.958;2023-04-01T05:15:05;10.10;99.90
13856;DHT22;6998;53.608;9.958;2023-04-01T05:17:33;9.70;99.90
13856;DHT22;6998;53.608;9.958;2023-04-01T05:20:01;9.50;99.90
13856;DHT22;6998;53.608;9.958;2023-04-01T05:22:27;9.40;99.90
13856;DHT22;6998;53.608;9.958;2023-04-01T05:24:54;9.30;99.90
13856;DHT22;6998;53.608;9.958;2023-04-01T05:27:21;9.20;99.90
13856;DHT22;6998;53.608;9.958;2023-04-01T05:29:48;9.10;99.90
13856;DHT22;6998;53.608;9.958;2023-04-01T05:32:15;8.90;99.90
13856;DHT22;6998;53.608;9.958;2023-04-01T05:34:43;8.80;99.90
13856;DHT22;6998;53.608;9.958;2023-04-01T05:37:10;8.70;99.90
13856;DHT22;6998;53.608;9.958;2023-04-01T05:39:37;8.60;99.90
13856;DHT22;6998;53.608;9.958;2023-04-01T05:42:06;8.50;99.90
13856;DHT22;6998;53.608;9.958;2023-04-01T05:44:33;8.60;99.90
13856;DHT22;6998;53.608;9.958;2023-04-01T05:47:00;8.60;99.90
13856;DHT22;6998;53.608;9.958;2023-04-01T05:49:27;8.50;99.90
13856;DHT22;6998;53.608;9.958;2023-04-01T05:51:55;8.50;99.90
13856;DHT22;6998;53.608;9.958;2023-04-01T05:54:22;8.50;99.90
13856;DHT22;6998;53.608;9.958;2023-04-01T05:56:49;8.40;99.90
13856;DHT22;6998;53.608;9.958;2023-04-01T05:59:16;8.30;99.90
13856;DHT22;6998;53.608;9.958;2023-04-01T06:01:43;8.30;99.90
13856;DHT22;6998;53.608;9.958;2023-04-01T06:04:13;8.30;99.90
13856;DHT22;6998;53.608;9.958;2023-04-01T06:06:40;8.20;99.90
13856;DHT22;6998;53.608;9.958;2023-04-01T06:09:14;8.10;99.90
13856;DHT22;6998;53.608;9.958;2023-04-01T06:11:51;8.10;99.90
13856;DHT22;6998;53.608;9.958;2023-04-01T06:14:30;8.00;99.90
13856;DHT22;6998;53.608;9.958;2023-04-01T06:17:16;8.10;99.90
13856;DHT22;6998;53.608;9.958;2023-04-01T06:19:51;8.10;99.90
13856;DHT22;6998;53.608;9.958;2023-04-01T06:22:34;7.90;99.90
13856;DHT22;6998;53.608;9.958;2023-04-01T06:25:31;7.80;99.90
13856;DHT22;6998;53.608;9.958;2023-04-01T06:28:30;7.80;99.90
13856;DHT22;6998;53.608;9.958;2023-04-01T06:31:07;7.70;99.90
13856;DHT22;6998;53.608;9.958;2023-04-01T06:33:46;7.70;99.90
13856;DHT22;6998;53.608;9.958;2023-04-01T06:36:42;7.60;99.90
13856;DHT22;6998;53.608;9.958;2023-04-01T06:42:30;7.70;99.90
13856;DHT22;6998;53.608;9.958;2023-04-01T06:45:10;7.60;99.90
13856;DHT22;6998;53.608;9.958;2023-04-01T06:47:54;7.50;99.90
13856;DHT22;6998;53.608;9.958;2023-04-01T06:50:28;7.50;99.90
13856;DHT22;6998;53.608;9.958;2023-04-01T06:53:02;7.50;99.90
13856;DHT22;6998;53.608;9.958;2023-04-01T06:55:36;7.50;99.90
13856;DHT22;6998;53.608;9.958;2023-04-01T06:58:13;7.50;99.90
13856;DHT22;6998;53.608;9.958;2023-04-01T07:00:44;7.40;99.90
13856;DHT22;6998;53.608;9.958;2023-04-01T07:03:18;7.40;99.90
13856;DHT22;6998;53.608;9.958;2023-04-01T07:05:47;7.40;99.90
13856;DHT22;6998;53.608;9.958;2023-04-01T07:08:18;7.40;99.90
13856;DHT22;6998;53.608;9.958;2023-04-01T07:10:50;7.30;99.90
13856;DHT22;6998;53.608;9.958;2023-04-01T07:13:20;7.30;99.90
13856;DHT22;6998;53.608;9.958;2023-04-01T07:15:55;7.30;99.90
13856;DHT22;6998;53.608;9.958;2023-04-01T07:18:30;7.20;99.90
13856;DHT22;6998;53.608;9.958;2023-04-01T07:20:59;7.20;99.90
13856;DHT22;6998;53.608;9.958;2023-04-01T07:23:32;7.30;99.90
13856;DHT22;6998;53.608;9.958;2023-04-01T07:26:03;7.30;99.90
13856;DHT22;6998;53.608;9.958;2023-04-01T07:28:34;7.30;99.90
13856;DHT22;6998;53.608;9.958;2023-04-01T07:31:11;7.30;99.90
13856;DHT22;6998;53.608;9.958;2023-04-01T07:33:45;7.40;99.90
13856;DHT22;6998;53.608;9.958;2023-04-01T07:36:23;7.40;99.90
13856;DHT22;6998;53.608;9.958;2023-04-01T07:38:59;7.50;99.90
13856;DHT22;6998;53.608;9.958;2023-04-01T07:41:37;7.40;99.90
13856;DHT22;6998;53.608;9.958;2023-04-01T07:44:14;7.30;99.90
13856;DHT22;6998;53.608;9.958;2023-04-01T07:46:56;7.30;99.90
13856;DHT22;6998;53.608;9.958;2023-04-01T07:49:30;7.40;99.90
13856;DHT22;6998;53.608;9.958;2023-04-01T07:52:04;7.30;99.90
13856;DHT22;6998;53.608;9.958;2023-04-01T07:54:37;7.20;99.90
13856;DHT22;6998;53.608;9.958;2023-04-01T07:57:09;7.10;99.90
13856;DHT22;6998;53.608;9.958;2023-04-01T07:59:45;7.00;99.90
13856;DHT22;6998;53.608;9.958;2023-04-01T08:02:25;7.00;99.90
13856;DHT22;6998;53.608;9.958;2023-04-01T08:05:02;7.00;99.90
13856;DHT22;6998;53.608;9.958;2023-04-01T08:07:35;7.00;99.90
13856;DHT22;6998;53.608;9.958;2023-04-01T08:10:11;7.00;99.90
13856;DHT22;6998;53.608;9.958;2023-04-01T08:12:48;7.10;99.90
13856;DHT22;6998;53.608;9.958;2023-04-01T08:15:23;7.00;99.90
13856;DHT22;6998;53.608;9.958;2023-04-01T08:18:06;7.10;99.90
13856;DHT22;6998;53.608;9.958;2023-04-01T08:20:43;7.00;99.90
13856;DHT22;6998;53.608;9.958;2023-04-01T08:23:14;7.00;99.90
13856;DHT22;6998;53.608;9.958;2023-04-01T08:25:46;6.90;99.90
13856;DHT22;6998;53.608;9.958;2023-04-01T08:28:19;6.90;99.90
13856;DHT22;6998;53.608;9.958;2023-04-01T08:30:52;6.80;99.90
13856;DHT22;6998;53.608;9.958;2023-04-01T08:33:22;6.80;99.90
13856;DHT22;6998;53.608;9.958;2023-04-01T08:35:53;6.80;99.90
13856;DHT22;6998;53.608;9.958;2023-04-01T08:38:23;6.80;99.90
13856;DHT22;6998;53.608;9.958;2023-04-01T08:44:19;6.90;99.90
13856;DHT22;6998;53.608;9.958;2023-04-01T08:47:19;6.90;99.90
13856;DHT22;6998;53.608;9.958;2023-04-01T08:50:01;7.00;99.90
13856;DHT22;6998;53.608;9.958;2023-04-01T08:52:36;7.00;99.90
13856;DHT22;6998;53.608;9.958;2023-04-01T08:55:22;6.90;99.90
13856;DHT22;6998;53.608;9.958;2023-04-01T08:58:04;6.90;99.90
13856;DHT22;6998;53.608;9.958;2023-04-01T09:00:42;6.80;99.90
13856;DHT22;6998;53.608;9.958;2023-04-01T09:03:44;7.00;99.90
13856;DHT22;6998;53.608;9.958;2023-04-01T09:06:33;7.00;99.90
13856;DHT22;6998;53.608;9.958;2023-04-01T09:09:29;7.00;99.90
13856;DHT22;6998;53.608;9.958;2023-04-01T09:12:35;7.10;99.90
13856;DHT22;6998;53.608;9.958;2023-04-01T09:18:38;7.50;99.90
13856;DHT22;6998;53.608;9.958;2023-04-01T09:24:22;7.50;99.90
13856;DHT22;6998;53.608;9.958;2023-04-01T09:27:03;7.40;99.90
13856;DHT22;6998;53.608;9.958;2023-04-01T09:29:49;7.50;99.90
13856;DHT22;6998;53.608;9.958;2023-04-01T09:32:39;7.40;99.90
13856;DHT22;6998;53.608;9.958;2023-04-01T09:35:21;7.40;99.90
13856;DHT22;6998;53.608;9.958;2023-04-01T09:37:57;7.40;99.90
13856;DHT22;6998;53.608;9.958;2023-04-01T09:40:34;7.40;99.90
13856;DHT22;6998;53.608;9.958;2023-04-01T09:43:25;7.50;99.90
13856;DHT22;6998;53.608;9.958;2023-04-01T09:46:04;7.60;99.90
13856;DHT22;6998;53.608;9.958;2023-04-01T09:51:45;7.40;99.90
13856;DHT22;6998;53.608;9.958;2023-04-01T09:54:24;7.40;99.90
13856;DHT22;6998;53.608;9.958;2023-04-01T09:57:23;7.40;99.90
13856;DHT22;6998;53.608;9.958;2023-04-01T10:00:29;7.40;99.90
13856;DHT22;6998;53.608;9.958;2023-04-01T10:03:28;7.40;99.90
13856;DHT22;6998;53.608;9.958;2023-04-01T10:09:43;7.50;99.90
13856;DHT22;6998;53.608;9.958;2023-04-01T10:12:41;7.60;99.90
13856;DHT22;6998;53.608;9.958;2023-04-01T10:15:34;7.60;99.90
13856;DHT22;6998;53.608;9.958;2023-04-01T10:18:26;7.70;99.90
13856;DHT22;6998;53.608;9.958;2023-04-01T10:21:39;7.70;99.90
13856;DHT22;6998;53.608;9.958;2023-04-01T10:27:20;8.00;99.90
13856;DHT22;6998;53.608;9.958;2023-04-01T10:36:34;7.70;99.90
13856;DHT22;6998;53.608;9.958;2023-04-01T10:42:40;7.80;99.90
13856;DHT22;6998;53.608;9.958;2023-04-01T10:48:30;7.90;99.90
13856;DHT22;6998;53.608;9.958;2023-04-01T10:51:22;7.90;99.90
13856;DHT22;6998;53.608;9.958;2023-04-01T10:54:21;7.80;99.90
13856;DHT22;6998;53.608;9.958;2023-04-01T10:56:57;8.00;99.90
13856;DHT22;6998;53.608;9.958;2023-04-01T11:12:16;8.00;99.90
13856;DHT22;6998;53.608;9.958;2023-04-01T11:15:10;7.90;99.90
13856;DHT22;6998;53.608;9.958;2023-04-01T11:17:55;7.80;99.90
13856;DHT22;6998;53.608;9.958;2023-04-01T11:20:41;7.70;99.90
13856;DHT22;6998;53.608;9.958;2023-04-01T11:23:27;7.70;99.90
13856;DHT22;6998;53.608;9.958;2023-04-01T11:26:09;7.70;99.90
13856;DHT22;6998;53.608;9.958;2023-04-01T11:28:58;7.60;99.90
13856;DHT22;6998;53.608;9.958;2023-04-01T11:31:37;7.60;99.90
13856;DHT22;6998;53.608;9.958;2023-04-01T11:34:16;7.60;99.90
13856;DHT22;6998;53.608;9.958;2023-04-01T11:36:55;7.60;99.90
13856;DHT22;6998;53.608;9.958;2023-04-01T11:39:32;7.50;99.90
13856;DHT22;6998;53.608;9.958;2023-04-01T11:42:09;7.70;99.90
13856;DHT22;6998;53.608;9.958;2023-04-01T11:44:43;7.70;99.90
13856;DHT22;6998;53.608;9.958;2023-04-01T11:47:34;7.70;99.90
13856;DHT22;6998;53.608;9.958;2023-04-01T11:50:17;7.50;99.90
13856;DHT22;6998;53.608;9.958;2023-04-01T11:53:13;7.50;99.90
13856;DHT22;6998;53.608;9.958;2023-04-01T11:55:50;7.80;99.90
13856;DHT22;6998;53.608;9.958;2023-04-01T11:58:33;7.80;99.90
13856;DHT22;6998;53.608;9.958;2023-04-01T12:01:16;7.80;99.90
13856;DHT22;6998;53.608;9.958;2023-04-01T12:04:04;7.80;99.90
13856;DHT22;6998;53.608;9.958;2023-04-01T12:06:44;7.50;99.90
13856;DHT22;6998;53.608;9.958;2023-04-01T12:09:21;7.40;99.90
13856;DHT22;6998;53.608;9.958;2023-04-01T12:12:02;7.30;99.90
13856;DHT22;6998;53.608;9.958;2023-04-01T12:14:36;7.30;99.90
13856;DHT22;6998;53.608;9.958;2023-04-01T12:17:14;7.40;99.90
13856;DHT22;6998;53.608;9.958;2023-04-01T12:19:53;7.30;99.90
13856;DHT22;6998;53.608;9.958;2023-04-01T12:22:43;7.20;99.90
13856;DHT22;6998;53.608;9.958;2023-04-01T12:25:25;7.40;99.90
13856;DHT22;6998;53.608;9.958;2023-04-01T12:28:01;7.30;99.90
13856;DHT22;6998;53.608;9.958;2023-04-01T12:30:56;7.30;99.90
13856;DHT22;6998;53.608;9.958;2023-04-01T12:33:52;7.30;99.90
13856;DHT22;6998;53.608;9.958;2023-04-01T12:36:46;7.40;99.90
13856;DHT22;6998;53.608;9.958;2023-04-01T12:39:33;7.40;99.90
13856;DHT22;6998;53.608;9.958;2023-04-01T12:42:11;7.50;99.90
13856;DHT22;6998;53.608;9.958;2023-04-01T12:44:52;7.40;99.90
13856;DHT22;6998;53.608;9.958;2023-04-01T12:50:28;7.10;99.90
13856;DHT22;6998;53.608;9.958;2023-04-01T12:53:23;7.10;99.90
13856;DHT22;6998;53.608;9.958;2023-04-01T12:55:59;7.00;99.90
13856;DHT22;6998;53.608;9.958;2023-04-01T12:58:54;6.90;99.90
13856;DHT22;6998;53.608;9.958;2023-04-01T13:04:54;6.90;99.90
13856;DHT22;6998;53.608;9.958;2023-04-01T13:07:43;6.90;99.90
13856;DHT22;6998;53.608;9.958;2023-04-01T13:10:23;6.90;99.90
13856;DHT22;6998;53.608;9.958;2023-04-01T13:13:10;6.90;99.90
13856;DHT22;6998;53.608;9.958;2023-04-01T13:15:43;6.90;99.90
13856;DHT22;6998;53.608;9.958;2023-04-01T13:18:25;6.80;99.90
13856;DHT22;6998;53.608;9.958;2023-04-01T13:21:03;6.70;99.90
13856;DHT22;6998;53.608;9.958;2023-04-01T13:23:43;6.80;99.90
13856;DHT22;6998;53.608;9.958;2023-04-01T13:26:20;6.70;99.90
13856;DHT22;6998;53.608;9.958;2023-04-01T13:28:54;6.70;99.90
13856;DHT22;6998;53.608;9.958;2023-04-01T13:31:37;6.70;99.90
13856;DHT22;6998;53.608;9.958;2023-04-01T13:34:16;6.80;99.90
13856;DHT22;6998;53.608;9.958;2023-04-01T13:36:53;6.90;99.90
13856;DHT22;6998;53.608;9.958;2023-04-01T13:39:39;7.00;99.90
13856;DHT22;6998;53.608;9.958;2023-04-01T13:42:21;7.10;99.90
13856;DHT22;6998;53.608;9.958;2023-04-01T13:44:54;7.00;99.90
13856;DHT22;6998;53.608;9.958;2023-04-01T13:50:37;6.70;99.90
13856;DHT22;6998;53.608;9.958;2023-04-01T13:53:35;6.70;99.90
13856;DHT22;6998;53.608;9.958;2023-04-01T13:56:15;6.60;99.90
13856;DHT22;6998;53.608;9.958;2023-04-01T13:58:53;6.70;99.90
13856;DHT22;6998;53.608;9.958;2023-04-01T14:01:31;6.60;99.90
13856;DHT22;6998;53.608;9.958;2023-04-01T14:04:29;6.60;99.90
13856;DHT22;6998;53.608;9.958;2023-04-01T14:07:13;6.70;99.90
13856;DHT22;6998;53.608;9.958;2023-04-01T14:09:51;6.70;99.90
13856;DHT22;6998;53.608;9.958;2023-04-01T14:12:30;6.90;99.90
13856;DHT22;6998;53.608;9.958;2023-04-01T14:15:14;6.70;99.90
13856;DHT22;6998;53.608;9.958;2023-04-01T14:17:54;6.60;99.90
13856;DHT22;6998;53.608;9.958;2023-04-01T14:20:29;6.50;99.90
13856;DHT22;6998;53.608;9.958;2023-04-01T14:23:21;6.40;99.90
13856;DHT22;6998;53.608;9.958;2023-04-01T14:26:05;6.50;99.90
13856;DHT22;6998;53.608;9.958;2023-04-01T14:28:38;6.50;99.90
13856;DHT22;6998;53.608;9.958;2023-04-01T14:31:24;6.60;99.90
13856;DHT22;6998;53.608;9.958;2023-04-01T14:34:05;6.50;99.90
13856;DHT22;6998;53.608;9.958;2023-04-01T14:36:44;6.60;99.90
13856;DHT22;6998;53.608;9.958;2023-04-01T14:42:31;6.60;99.90
13856;DHT22;6998;53.608;9.958;2023-04-01T14:45:18;6.50;99.90
13856;DHT22;6998;53.608;9.958;2023-04-01T14:47:54;6.60;99.90
13856;DHT22;6998;53.608;9.958;2023-04-01T14:50:24;6.60;99.90
13856;DHT22;6998;53.608;9.958;2023-04-01T14:52:59;6.50;99.90
13856;DHT22;6998;53.608;9.958;2023-04-01T14:55:48;6.50;99.90
13856;DHT22;6998;53.608;9.958;2023-04-01T14:58:17;6.40;99.90
13856;DHT22;6998;53.608;9.958;2023-04-01T15:00:54;6.50;99.90
13856;DHT22;6998;53.608;9.958;2023-04-01T15:03:27;6.40;99.90
13856;DHT22;6998;53.608;9.958;2023-04-01T15:06:10;6.40;99.90
13856;DHT22;6998;53.608;9.958;2023-04-01T15:08:44;6.40;99.90
13856;DHT22;6998;53.608;9.958;2023-04-01T15:11:25;6.40;99.90
13856;DHT22;6998;53.608;9.958;2023-04-01T15:14:23;6.40;99.90
13856;DHT22;6998;53.608;9.958;2023-04-01T15:17:03;6.30;99.90
13856;DHT22;6998;53.608;9.958;2023-04-01T15:19:45;6.10;99.90
13856;DHT22;6998;53.608;9.958;2023-04-01T15:22:33;6.10;99.90
13856;DHT22;6998;53.608;9.958;2023-04-01T15:25:23;6.10;99.90
13856;DHT22;6998;53.608;9.958;2023-04-01T15:27:56;6.10;99.90
13856;DHT22;6998;53.608;9.958;2023-04-01T15:30:33;6.10;99.90
13856;DHT22;6998;53.608;9.958;2023-04-01T15:33:25;6.00;99.90
13856;DHT22;6998;53.608;9.958;2023-04-01T15:36:01;6.00;99.90
13856;DHT22;6998;53.608;9.958;2023-04-01T15:38:36;6.00;99.90
13856;DHT22;6998;53.608;9.958;2023-04-01T15:41:14;6.00;99.90
13856;DHT22;6998;53.608;9.958;2023-04-01T15:43:43;6.00;99.90
13856;DHT22;6998;53.608;9.958;2023-04-01T15:46:39;6.00;99.90
13856;DHT22;6998;53.608;9.958;2023-04-01T15:49:19;6.00;99.90
13856;DHT22;6998;53.608;9.958;2023-04-01T15:51:58;6.00;99.90
13856;DHT22;6998;53.608;9.958;2023-04-01T15:54:52;5.90;99.90
13856;DHT22;6998;53.608;9.958;2023-04-01T15:57:28;5.80;99.90
13856;DHT22;6998;53.608;9.958;2023-04-01T16:00:11;5.80;99.90
13856;DHT22;6998;53.608;9.958;2023-04-01T16:02:46;5.70;99.90
13856;DHT22;6998;53.608;9.958;2023-04-01T16:05:27;5.70;99.90
13856;DHT22;6998;53.608;9.958;2023-04-01T16:08:11;5.70;99.90
13856;DHT22;6998;53.608;9.958;2023-04-01T16:11:03;5.60;99.90
13856;DHT22;6998;53.608;9.958;2023-04-01T16:13:46;5.70;99.90
13856;DHT22;6998;53.608;9.958;2023-04-01T16:16:23;5.70;99.90
13856;DHT22;6998;53.608;9.958;2023-04-01T16:19:03;5.70;99.90
13856;DHT22;6998;53.608;9.958;2023-04-01T16:21:38;5.60;99.90
13856;DHT22;6998;53.608;9.958;2023-04-01T16:24:15;5.60;99.90
13856;DHT22;6998;53.608;9.958;2023-04-01T16:26:50;5.60;99.90
13856;DHT22;6998;53.608;9.958;2023-04-01T16:29:26;5.60;99.90
13856;DHT22;6998;53.608;9.958;2023-04-01T16:32:10;5.70;99.90
13856;DHT22;6998;53.608;9.958;2023-04-01T16:34:43;5.60;99.90
13856;DHT22;6998;53.608;9.958;2023-04-01T16:37:13;5.60;99.90
13856;DHT22;6998;53.608;9.958;2023-04-01T16:39:47;5.50;99.90
13856;DHT22;6998;53.608;9.958;2023-04-01T16:42:31;5.40;99.90
13856;DHT22;6998;53.608;9.958;2023-04-01T16:45:19;5.40;99.90
13856;DHT22;6998;53.608;9.958;2023-04-01T16:47:51;5.40;99.90
13856;DHT22;6998;53.608;9.958;2023-04-01T16:50:21;5.40;99.90
13856;DHT22;6998;53.608;9.958;2023-04-01T16:52:59;5.30;99.90
13856;DHT22;6998;53.608;9.958;2023-04-01T16:55:43;5.30;99.90
13856;DHT22;6998;53.608;9.958;2023-04-01T16:58:19;5.40;99.90
13856;DHT22;6998;53.608;9.958;2023-04-01T17:00:49;5.40;99.90
13856;DHT22;6998;53.608;9.958;2023-04-01T17:03:21;5.40;99.90
13856;DHT22;6998;53.608;9.958;2023-04-01T17:06:00;5.30;99.90
13856;DHT22;6998;53.608;9.958;2023-04-01T17:08:44;5.30;99.90
13856;DHT22;6998;53.608;9.958;2023-04-01T17:11:18;5.20;99.90
13856;DHT22;6998;53.608;9.958;2023-04-01T17:13:52;5.20;99.90
13856;DHT22;6998;53.608;9.958;2023-04-01T17:16:34;5.20;99.90
13856;DHT22;6998;53.608;9.958;2023-04-01T17:19:14;5.20;99.90
13856;DHT22;6998;53.608;9.958;2023-04-01T17:21:49;5.20;99.90
13856;DHT22;6998;53.608;9.958;2023-04-01T17:24:37;5.10;99.90
13856;DHT22;6998;53.608;9.958;2023-04-01T17:27:22;5.20;99.90
13856;DHT22;6998;53.608;9.958;2023-04-01T17:30:03;5.20;99.90
13856;DHT22;6998;53.608;9.958;2023-04-01T17:32:45;5.20;99.90
13856;DHT22;6998;53.608;9.958;2023-04-01T17:35:19;5.20;99.90
13856;DHT22;6998;53.608;9.958;2023-04-01T17:37:58;5.10;99.90
13856;DHT22;6998;53.608;9.958;2023-04-01T17:40:50;5.10;99.90
13856;DHT22;6998;53.608;9.958;2023-04-01T17:43:29;5.10;99.90
13856;DHT22;6998;53.608;9.958;2023-04-01T17:46:01;5.00;99.90
13856;DHT22;6998;53.608;9.958;2023-04-01T17:48:38;5.10;99.90
13856;DHT22;6998;53.608;9.958;2023-04-01T17:51:18;5.10;99.90
13856;DHT22;6998;53.608;9.958;2023-04-01T17:53:53;5.10;99.90
13856;DHT22;6998;53.608;9.958;2023-04-01T17:56:31;5.10;99.90
13856;DHT22;6998;53.608;9.958;2023-04-01T17:59:09;5.10;99.90